sensor_id;sensor_type;location;lat;lon;timestamp;temperature;humidity
26479;DHT22;14163;-26.142;27.992;2024-01-15T00:01:02;24.00;99.90
26479;DHT22;14163;-26.142;27.992;2024-01-15T00:03:31;24.20;99.90
26479;DHT22;14163;-26.142;27.992;2024-01-15T00:05:59;24.20;99.90
26479;DHT22;14163;-26.142;27.992;2024-01-15T00:08:28;24.30;99.90
26479;DHT22;14163;-26.142;27.992;2024-01-15T00:10:57;24.30;99.90
26479;DHT22;14163;-26.142;27.992;2024-01-15T00:13:28;24.20;99.90
26479;DHT22;14163;-26.142;27.992;2024-01-15T00:15:57;24.00;99.90
26479;DHT22;14163;-26.142;27.992;2024-01-15T00:18:26;23.90;99.90
26479;DHT22;14163;-26.142;27.992;2024-01-15T00:20:55;23.70;99.90
26479;DHT22;14163;-26.142;27.992;2024-01-15T00:23:23;23.70;99.90
26479;DHT22;14163;-26.142;27.992;2024-01-15T00:25:53;23.80;99.90
26479;DHT22;14163;-26.142;27.992;2024-01-15T00:28:22;23.70;99.90
26479;DHT22;14163;-26.142;27.992;2024-01-15T00:30:52;23.80;99.90
26479;DHT22;14163;-26.142;27.992;2024-01-15T00:33:21;23.90;99.90
26479;DHT22;14163;-26.142;27.992;2024-01-15T00:35:50;24.00;99.90
26479;DHT22;14163;-26.142;27.992;2024-01-15T00:38:19;24.00;99.90
26479;DHT22;14163;-26.142;27.992;2024-01-15T00:40:47;24.00;99.90
26479;DHT22;14163;-26.142;27.992;2024-01-15T00:43:16;23.90;99.90
26479;DHT22;14163;-26.142;27.992;2024-01-15T00:45:46;23.90;99.90
26479;DHT22;14163;-26.142;27.992;2024-01-15T00:48:17;24.00;99.90
26479;DHT22;14163;-26.142;27.992;2024-01-15T00:50:45;24.00;99.90
26479;DHT22;14163;-26.142;27.992;2024-01-15T00:53:14;24.10;99.90
26479;DHT22;14163;-26.142;27.992;2024-01-15T00:55:43;24.10;99.90
26479;DHT22;14163;-26.142;27.992;2024-01-15T00:58:12;24.10;99.90
26479;DHT22;14163;-26.142;27.992;2024-01-15T01:00:41;24.20;99.90
26479;DHT22;14163;-26.142;27.992;2024-01-15T01:03:10;24.30;99.90
26479;DHT22;14163;-26.142;27.992;2024-01-15T01:05:40;24.30;99.90
26479;DHT22;14163;-26.142;27.992;2024-01-15T01:08:09;24.30;99.90
26479;DHT22;14163;-26.142;27.992;2024-01-15T01:10:38;24.30;99.90
26479;DHT22;14163;-26.142;27.992;2024-01-15T01:13:09;24.30;99.90
26479;DHT22;14163;-26.142;27.992;2024-01-15T01:15:38;24.10;99.90
26479;DHT22;14163;-26.142;27.992;2024-01-15T01:18:07;24.10;99.90
26479;DHT22;14163;-26.142;27.992;2024-01-15T01:20:36;24.10;99.90
26479;DHT22;14163;-26.142;27.992;2024-01-15T01:23:07;24.20;99.90
26479;DHT22;14163;-26.142;27.992;2024-01-15T01:25:36;24.30;99.90
26479;DHT22;14163;-26.142;27.992;2024-01-15T01:28:05;24.30;99.90
26479;DHT22;14163;-26.142;27.992;2024-01-15T01:30:34;24.20;99.90
26479;DHT22;14163;-26.142;27.992;2024-01-15T01:33:03;24.30;99.90
26479;DHT22;14163;-26.142;27.992;2024-01-15T01:35:32;24.30;99.90
26479;DHT22;14163;-26.142;27.992;2024-01-15T01:38:00;24.30;99.90
26479;DHT22;14163;-26.142;27.992;2024-01-15T01:40:32;24.30;99.90
26479;DHT22;14163;-26.142;27.992;2024-01-15T01:43:02;24.20;99.90
26479;DHT22;14163;-26.142;27.992;2024-01-15T01:45:31;24.20;99.90
26479;DHT22;14163;-26.142;27.992;2024-01-15T01:48:01;24.20;99.90
26479;DHT22;14163;-26.142;27.992;2024-01-15T01:50:30;24.20;99.90
26479;DHT22;14163;-26.142;27.992;2024-01-15T01:53:00;24.30;99.90
26479;DHT22;14163;-26.142;27.992;2024-01-15T01:55:33;24.30;99.90
26479;DHT22;14163;-26.142;27.992;2024-01-15T01:58:04;24.30;99.90
26479;DHT22;14163;-26.142;27.992;2024-01-15T02:00:34;24.30;99.90
26479;DHT22;14163;-26.142;27.992;2024-01-15T02:03:04;24.20;99.90
26479;DHT22;14163;-26.142;27.992;2024-01-15T02:05:34;24.20;99.90
26479;DHT22;14163;-26.142;27.992;2024-01-15T02:08:04;24.10;99.90
26479;DHT22;14163;-26.142;27.992;2024-01-15T02:10:35;24.10;99.90
26479;DHT22;14163;-26.142;27.992;2024-01-15T02:13:04;24.10;99.90
26479;DHT22;14163;-26.142;27.992;2024-01-15T02:15:34;24.10;99.90
26479;DHT22;14163;-26.142;27.992;2024-01-15T02:18:04;24.10;99.90
26479;DHT22;14163;-26.142;27.992;2024-01-15T02:20:34;24.10;99.90
26479;DHT22;14163;-26.142;27.992;2024-01-15T02:23:11;24.10;99.90
26479;DHT22;14163;-26.142;27.992;2024-01-15T02:25:42;24.00;99.90
26479;DHT22;14163;-26.142;27.992;2024-01-15T02:28:12;24.00;99.90
26479;DHT22;14163;-26.142;27.992;2024-01-15T02:30:41;24.00;99.90
26479;DHT22;14163;-26.142;27.992;2024-01-15T02:33:11;24.00;99.90
26479;DHT22;14163;-26.142;27.992;2024-01-15T02:35:40;24.00;99.90
26479;DHT22;14163;-26.142;27.992;2024-01-15T02:38:11;24.00;99.90
26479;DHT22;14163;-26.142;27.992;2024-01-15T02:40:40;24.00;99.90
26479;DHT22;14163;-26.142;27.992;2024-01-15T02:43:08;24.10;99.90
26479;DHT22;14163;-26.142;27.992;2024-01-15T02:45:37;24.00;99.90
26479;DHT22;14163;-26.142;27.992;2024-01-15T02:48:07;23.90;99.90
26479;DHT22;14163;-26.142;27.992;2024-01-15T02:50:36;23.80;99.90
26479;DHT22;14163;-26.142;27.992;2024-01-15T02:53:05;23.70;99.90
26479;DHT22;14163;-26.142;27.992;2024-01-15T02:55:36;23.60;99.90
26479;DHT22;14163;-26.142;27.992;2024-01-15T02:58:05;23.70;99.90
26479;DHT22;14163;-26.142;27.992;2024-01-15T03:00:33;23.80;99.90
26479;DHT22;14163;-26.142;27.992;2024-01-15T03:03:02;23.90;99.90
26479;DHT22;14163;-26.142;27.992;2024-01-15T03:05:31;23.90;99.90
26479;DHT22;14163;-26.142;27.992;2024-01-15T03:08:00;23.90;99.90
26479;DHT22;14163;-26.142;27.992;2024-01-15T03:10:29;23.90;99.90
26479;DHT22;14163;-26.142;27.992;2024-01-15T03:13:00;23.90;99.90
26479;DHT22;14163;-26.142;27.992;2024-01-15T03:15:29;23.90;99.90
26479;DHT22;14163;-26.142;27.992;2024-01-15T03:17:58;23.80;99.90
26479;DHT22;14163;-26.142;27.992;2024-01-15T03:20:27;23.80;99.90
26479;DHT22;14163;-26.142;27.992;2024-01-15T03:22:56;23.70;99.90
26479;DHT22;14163;-26.142;27.992;2024-01-15T03:25:25;23.70;99.90
26479;DHT22;14163;-26.142;27.992;2024-01-15T03:27:54;23.50;99.90
26479;DHT22;14163;-26.142;27.992;2024-01-15T03:30:25;23.30;99.90
26479;DHT22;14163;-26.142;27.992;2024-01-15T03:32:54;23.30;99.90
26479;DHT22;14163;-26.142;27.992;2024-01-15T03:35:24;23.10;99.90
26479;DHT22;14163;-26.142;27.992;2024-01-15T03:37:56;23.20;99.90
26479;DHT22;14163;-26.142;27.992;2024-01-15T03:40:25;23.10;99.90
26479;DHT22;14163;-26.142;27.992;2024-01-15T03:42:54;23.20;99.90
26479;DHT22;14163;-26.142;27.992;2024-01-15T03:45:24;23.30;99.90
26479;DHT22;14163;-26.142;27.992;2024-01-15T03:47:53;23.30;99.90
26479;DHT22;14163;-26.142;27.992;2024-01-15T03:50:22;23.20;99.90
26479;DHT22;14163;-26.142;27.992;2024-01-15T03:52:51;23.30;99.90
26479;DHT22;14163;-26.142;27.992;2024-01-15T03:55:20;23.30;99.90
26479;DHT22;14163;-26.142;27.992;2024-01-15T03:57:49;23.40;99.90
26479;DHT22;14163;-26.142;27.992;2024-01-15T04:00:18;23.40;99.90
26479;DHT22;14163;-26.142;27.992;2024-01-15T04:02:49;23.40;99.90
26479;DHT22;14163;-26.142;27.992;2024-01-15T06:11:53;20.00;99.90
26479;DHT22;14163;-26.142;27.992;2024-01-15T06:14:22;20.20;99.90
26479;DHT22;14163;-26.142;27.992;2024-01-15T06:16:50;20.90;99.90
26479;DHT22;14163;-26.142;27.992;2024-01-15T06:19:19;21.50;99.90
26479;DHT22;14163;-26.142;27.992;2024-01-15T06:21:48;22.10;99.90
26479;DHT22;14163;-26.142;27.992;2024-01-15T06:24:17;22.70;99.90
26479;DHT22;14163;-26.142;27.992;2024-01-15T06:26:47;23.30;99.90
26479;DHT22;14163;-26.142;27.992;2024-01-15T06:29:18;23.70;99.90
26479;DHT22;14163;-26.142;27.992;2024-01-15T06:31:46;23.90;99.90
26479;DHT22;14163;-26.142;27.992;2024-01-15T06:34:16;23.90;99.90
26479;DHT22;14163;-26.142;27.992;2024-01-15T06:36:45;23.90;99.90
26479;DHT22;14163;-26.142;27.992;2024-01-15T06:39:13;24.00;99.90
26479;DHT22;14163;-26.142;27.992;2024-01-15T06:41:43;24.20;99.90
26479;DHT22;14163;-26.142;27.992;2024-01-15T06:44:11;24.30;99.90
26479;DHT22;14163;-26.142;27.992;2024-01-15T06:46:44;24.30;99.90
26479;DHT22;14163;-26.142;27.992;2024-01-15T06:49:13;24.30;99.90
26479;DHT22;14163;-26.142;27.992;2024-01-15T06:51:42;24.50;99.90
26479;DHT22;14163;-26.142;27.992;2024-01-15T06:54:11;24.40;99.90
26479;DHT22;14163;-26.142;27.992;2024-01-15T06:56:40;24.30;99.90
26479;DHT22;14163;-26.142;27.992;2024-01-15T06:59:09;24.30;99.90
26479;DHT22;14163;-26.142;27.992;2024-01-15T07:01:38;24.50;99.90
26479;DHT22;14163;-26.142;27.992;2024-01-15T07:04:08;24.60;99.90
26479;DHT22;14163;-26.142;27.992;2024-01-15T07:06:37;25.00;99.90
26479;DHT22;14163;-26.142;27.992;2024-01-15T07:09:07;25.10;99.90
26479;DHT22;14163;-26.142;27.992;2024-01-15T07:11:37;25.20;99.90
26479;DHT22;14163;-26.142;27.992;2024-01-15T07:14:06;25.40;99.90
26479;DHT22;14163;-26.142;27.992;2024-01-15T07:16:35;25.30;99.90
26479;DHT22;14163;-26.142;27.992;2024-01-15T07:19:04;25.30;99.90
26479;DHT22;14163;-26.142;27.992;2024-01-15T07:21:35;25.40;99.90
26479;DHT22;14163;-26.142;27.992;2024-01-15T07:24:06;25.50;99.90
26479;DHT22;14163;-26.142;27.992;2024-01-15T07:26:35;25.40;99.90
26479;DHT22;14163;-26.142;27.992;2024-01-15T07:29:04;25.40;99.90
26479;DHT22;14163;-26.142;27.992;2024-01-15T07:31:33;25.00;99.90
26479;DHT22;14163;-26.142;27.992;2024-01-15T07:34:02;25.10;99.90
26479;DHT22;14163;-26.142;27.992;2024-01-15T07:36:31;25.40;99.90
26479;DHT22;14163;-26.142;27.992;2024-01-15T07:39:01;25.50;99.90
26479;DHT22;14163;-26.142;27.992;2024-01-15T07:41:31;25.50;99.90
26479;DHT22;14163;-26.142;27.992;2024-01-15T07:44:00;25.70;99.90
26479;DHT22;14163;-26.142;27.992;2024-01-15T07:46:31;25.80;99.90
26479;DHT22;14163;-26.142;27.992;2024-01-15T07:49:00;25.80;99.90
26479;DHT22;14163;-26.142;27.992;2024-01-15T07:51:28;25.80;99.90
26479;DHT22;14163;-26.142;27.992;2024-01-15T07:53:57;25.90;99.90
26479;DHT22;14163;-26.142;27.992;2024-01-15T07:56:28;25.80;99.90
26479;DHT22;14163;-26.142;27.992;2024-01-15T07:58:57;25.70;99.90
26479;DHT22;14163;-26.142;27.992;2024-01-15T08:01:26;26.00;99.90
26479;DHT22;14163;-26.142;27.992;2024-01-15T08:03:55;26.10;99.90
26479;DHT22;14163;-26.142;27.992;2024-01-15T08:06:24;26.00;99.90
26479;DHT22;14163;-26.142;27.992;2024-01-15T08:08:53;26.10;99.90
26479;DHT22;14163;-26.142;27.992;2024-01-15T08:11:21;26.00;99.90
26479;DHT22;14163;-26.142;27.992;2024-01-15T08:13:52;25.80;99.90
26479;DHT22;14163;-26.142;27.992;2024-01-15T08:16:21;26.00;99.90
26479;DHT22;14163;-26.142;27.992;2024-01-15T08:18:51;26.00;99.90
26479;DHT22;14163;-26.142;27.992;2024-01-15T08:21:20;26.10;99.90
26479;DHT22;14163;-26.142;27.992;2024-01-15T08:23:49;26.20;99.90
26479;DHT22;14163;-26.142;27.992;2024-01-15T08:26:18;26.30;99.90
26479;DHT22;14163;-26.142;27.992;2024-01-15T08:28:48;26.40;99.90
26479;DHT22;14163;-26.142;27.992;2024-01-15T08:31:19;26.50;99.90
26479;DHT22;14163;-26.142;27.992;2024-01-15T08:33:47;26.40;99.90
26479;DHT22;14163;-26.142;27.992;2024-01-15T08:36:17;26.30;99.90
26479;DHT22;14163;-26.142;27.992;2024-01-15T08:38:46;26.40;99.90
26479;DHT22;14163;-26.142;27.992;2024-01-15T08:41:15;26.40;99.90
26479;DHT22;14163;-26.142;27.992;2024-01-15T08:43:44;26.60;99.90
26479;DHT22;14163;-26.142;27.992;2024-01-15T08:46:13;26.70;99.90
26479;DHT22;14163;-26.142;27.992;2024-01-15T08:48:43;27.00;99.90
26479;DHT22;14163;-26.142;27.992;2024-01-15T08:51:14;27.10;99.90
26479;DHT22;14163;-26.142;27.992;2024-01-15T08:53:43;27.20;99.90
26479;DHT22;14163;-26.142;27.992;2024-01-15T08:56:11;27.20;99.90
26479;DHT22;14163;-26.142;27.992;2024-01-15T08:58:40;27.20;99.90
26479;DHT22;14163;-26.142;27.992;2024-01-15T09:01:09;27.10;99.90
26479;DHT22;14163;-26.142;27.992;2024-01-15T09:03:38;27.00;99.90
26479;DHT22;14163;-26.142;27.992;2024-01-15T09:06:10;27.00;99.90
26479;DHT22;14163;-26.142;27.992;2024-01-15T09:08:39;27.10;99.90
26479;DHT22;14163;-26.142;27.992;2024-01-15T09:11:08;27.30;99.90
26479;DHT22;14163;-26.142;27.992;2024-01-15T09:13:37;27.40;99.90
26479;DHT22;14163;-26.142;27.992;2024-01-15T09:16:06;27.40;99.90
26479;DHT22;14163;-26.142;27.992;2024-01-15T09:18:35;27.30;99.90
26479;DHT22;14163;-26.142;27.992;2024-01-15T09:21:04;27.20;99.90
26479;DHT22;14163;-26.142;27.992;2024-01-15T09:23:35;27.30;99.90
26479;DHT22;14163;-26.142;27.992;2024-01-15T09:26:04;27.30;99.90
26479;DHT22;14163;-26.142;27.992;2024-01-15T09:28:33;27.30;99.90
26479;DHT22;14163;-26.142;27.992;2024-01-15T09:31:01;27.50;99.90
26479;DHT22;14163;-26.142;27.992;2024-01-15T09:33:30;27.50;99.90
26479;DHT22;14163;-26.142;27.992;2024-01-15T09:36:02;27.70;99.90
26479;DHT22;14163;-26.142;27.992;2024-01-15T09:38:32;27.80;99.90
26479;DHT22;14163;-26.142;27.992;2024-01-15T09:41:03;28.00;99.90
26479;DHT22;14163;-26.142;27.992;2024-01-15T09:43:32;27.90;99.90
26479;DHT22;14163;-26.142;27.992;2024-01-15T09:46:02;28.00;99.90
26479;DHT22;14163;-26.142;27.992;2024-01-15T09:48:30;27.80;99.90
26479;DHT22;14163;-26.142;27.992;2024-01-15T09:51:01;27.90;99.90
26479;DHT22;14163;-26.142;27.992;2024-01-15T09:53:31;28.00;99.90
26479;DHT22;14163;-26.142;27.992;2024-01-15T09:56:00;27.90;99.90
26479;DHT22;14163;-26.142;27.992;2024-01-15T09:58:31;27.90;99.90
26479;DHT22;14163;-26.142;27.992;2024-01-15T10:01:01;28.00;99.90
26479;DHT22;14163;-26.142;27.992;2024-01-15T10:03:30;28.20;99.90
26479;DHT22;14163;-26.142;27.992;2024-01-15T10:05:59;28.20;99.90
26479;DHT22;14163;-26.142;27.992;2024-01-15T10:08:29;28.20;99.90
26479;DHT22;14163;-26.142;27.992;2024-01-15T10:10:58;28.30;99.90
26479;DHT22;14163;-26.142;27.992;2024-01-15T10:13:27;28.40;99.90
26479;DHT22;14163;-26.142;27.992;2024-01-15T10:15:58;28.60;99.90
26479;DHT22;14163;-26.142;27.992;2024-01-15T10:18:27;28.70;99.90
26479;DHT22;14163;-26.142;27.992;2024-01-15T10:20:57;28.70;99.90
26479;DHT22;14163;-26.142;27.992;2024-01-15T10:23:26;28.70;99.90
26479;DHT22;14163;-26.142;27.992;2024-01-15T10:25:57;28.70;99.90
26479;DHT22;14163;-26.142;27.992;2024-01-15T10:28:27;28.60;99.90
26479;DHT22;14163;-26.142;27.992;2024-01-15T10:31:00;28.20;99.90
26479;DHT22;14163;-26.142;27.992;2024-01-15T10:33:29;28.30;99.90
26479;DHT22;14163;-26.142;27.992;2024-01-15T10:36:00;28.60;99.90
26479;DHT22;14163;-26.142;27.992;2024-01-15T10:38:29;28.60;99.90
26479;DHT22;14163;-26.142;27.992;2024-01-15T10:40:57;28.80;99.90
26479;DHT22;14163;-26.142;27.992;2024-01-15T10:43:26;28.90;99.90
26479;DHT22;14163;-26.142;27.992;2024-01-15T10:45:57;28.90;99.90
26479;DHT22;14163;-26.142;27.992;2024-01-15T10:48:27;29.00;99.90
26479;DHT22;14163;-26.142;27.992;2024-01-15T10:50:57;28.90;99.90
26479;DHT22;14163;-26.142;27.992;2024-01-15T10:53:27;28.90;99.90
26479;DHT22;14163;-26.142;27.992;2024-01-15T10:55:57;29.10;99.90
26479;DHT22;14163;-26.142;27.992;2024-01-15T10:58:30;29.20;99.90
26479;DHT22;14163;-26.142;27.992;2024-01-15T11:01:01;29.20;99.90
26479;DHT22;14163;-26.142;27.992;2024-01-15T11:03:31;29.40;99.90
26479;DHT22;14163;-26.142;27.992;2024-01-15T11:06:00;29.50;99.90
26479;DHT22;14163;-26.142;27.992;2024-01-15T11:08:30;29.60;99.90
26479;DHT22;14163;-26.142;27.992;2024-01-15T11:10:59;29.60;99.90
26479;DHT22;14163;-26.142;27.992;2024-01-15T11:13:41;29.80;99.90
26479;DHT22;14163;-26.142;27.992;2024-01-15T11:16:13;29.70;99.90
26479;DHT22;14163;-26.142;27.992;2024-01-15T11:18:43;29.60;99.90
26479;DHT22;14163;-26.142;27.992;2024-01-15T11:21:22;29.60;99.90
26479;DHT22;14163;-26.142;27.992;2024-01-15T11:23:51;29.60;99.90
26479;DHT22;14163;-26.142;27.992;2024-01-15T11:26:31;29.60;99.90
26479;DHT22;14163;-26.142;27.992;2024-01-15T11:29:02;29.70;99.90
26479;DHT22;14163;-26.142;27.992;2024-01-15T11:32:03;29.70;99.90
26479;DHT22;14163;-26.142;27.992;2024-01-15T11:34:51;29.90;99.90
26479;DHT22;14163;-26.142;27.992;2024-01-15T11:37:21;30.10;99.90
26479;DHT22;14163;-26.142;27.992;2024-01-15T11:39:52;30.30;99.90
26479;DHT22;14163;-26.142;27.992;2024-01-15T11:42:22;30.50;99.90
26479;DHT22;14163;-26.142;27.992;2024-01-15T11:44:51;30.60;99.90
26479;DHT22;14163;-26.142;27.992;2024-01-15T11:47:57;30.80;99.90
26479;DHT22;14163;-26.142;27.992;2024-01-15T11:50:32;31.00;99.90
26479;DHT22;14163;-26.142;27.992;2024-01-15T11:53:02;30.80;99.90
26479;DHT22;14163;-26.142;27.992;2024-01-15T11:55:35;30.70;99.90
26479;DHT22;14163;-26.142;27.992;2024-01-15T11:58:07;30.80;99.90
26479;DHT22;14163;-26.142;27.992;2024-01-15T12:00:40;31.00;99.90
26479;DHT22;14163;-26.142;27.992;2024-01-15T12:03:11;31.10;99.90
26479;DHT22;14163;-26.142;27.992;2024-01-15T14:08:35;29.30;99.90
26479;DHT22;14163;-26.142;27.992;2024-01-15T14:11:05;29.50;99.90
26479;DHT22;14163;-26.142;27.992;2024-01-15T14:13:34;30.10;99.90
26479;DHT22;14163;-26.142;27.992;2024-01-15T14:16:03;30.90;99.90
26479;DHT22;14163;-26.142;27.992;2024-01-15T14:18:32;31.70;99.90
26479;DHT22;14163;-26.142;27.992;2024-01-15T14:21:01;32.20;99.90
26479;DHT22;14163;-26.142;27.992;2024-01-15T14:23:30;32.40;99.90
26479;DHT22;14163;-26.142;27.992;2024-01-15T14:26:01;32.60;99.90
26479;DHT22;14163;-26.142;27.992;2024-01-15T14:28:31;32.60;99.90
26479;DHT22;14163;-26.142;27.992;2024-01-15T14:31:00;32.60;99.90
26479;DHT22;14163;-26.142;27.992;2024-01-15T14:33:29;32.40;99.90
26479;DHT22;14163;-26.142;27.992;2024-01-15T14:35:58;32.40;99.90
26479;DHT22;14163;-26.142;27.992;2024-01-15T14:38:27;32.50;99.90
26479;DHT22;14163;-26.142;27.992;2024-01-15T14:40:56;32.60;99.90
26479;DHT22;14163;-26.142;27.992;2024-01-15T14:43:27;32.70;99.90
26479;DHT22;14163;-26.142;27.992;2024-01-15T14:45:55;32.70;99.90
26479;DHT22;14163;-26.142;27.992;2024-01-15T14:48:24;32.80;99.90
26479;DHT22;14163;-26.142;27.992;2024-01-15T14:50:53;32.80;99.90
26479;DHT22;14163;-26.142;27.992;2024-01-15T14:53:22;32.70;99.90
26479;DHT22;14163;-26.142;27.992;2024-01-15T14:55:51;32.70;99.90
26479;DHT22;14163;-26.142;27.992;2024-01-15T14:58:20;32.50;99.90
26479;DHT22;14163;-26.142;27.992;2024-01-15T15:00:51;32.60;99.90
26479;DHT22;14163;-26.142;27.992;2024-01-15T15:03:20;32.50;99.90
26479;DHT22;14163;-26.142;27.992;2024-01-15T15:05:48;32.50;99.90
26479;DHT22;14163;-26.142;27.992;2024-01-15T15:08:17;32.50;99.90
26479;DHT22;14163;-26.142;27.992;2024-01-15T15:10:46;32.50;99.90
26479;DHT22;14163;-26.142;27.992;2024-01-15T15:13:14;32.50;99.90
26479;DHT22;14163;-26.142;27.992;2024-01-15T15:15:42;32.50;99.90
26479;DHT22;14163;-26.142;27.992;2024-01-15T15:18:12;32.40;99.90
26479;DHT22;14163;-26.142;27.992;2024-01-15T15:20:40;32.50;99.90
26479;DHT22;14163;-26.142;27.992;2024-01-15T15:23:09;32.50;99.90
26479;DHT22;14163;-26.142;27.992;2024-01-15T15:25:37;32.50;99.90
26479;DHT22;14163;-26.142;27.992;2024-01-15T15:28:05;32.60;99.90
26479;DHT22;14163;-26.142;27.992;2024-01-15T15:30:34;32.40;99.90
26479;DHT22;14163;-26.142;27.992;2024-01-15T15:33:02;32.30;99.90
26479;DHT22;14163;-26.142;27.992;2024-01-15T15:35:32;31.80;99.90
26479;DHT22;14163;-26.142;27.992;2024-01-15T15:38:01;31.60;99.90
26479;DHT22;14163;-26.142;27.992;2024-01-15T15:40:29;31.50;99.90
26479;DHT22;14163;-26.142;27.992;2024-01-15T15:42:57;31.00;99.90
26479;DHT22;14163;-26.142;27.992;2024-01-15T15:45:25;30.50;99.90
26479;DHT22;14163;-26.142;27.992;2024-01-15T15:47:53;30.60;99.90
26479;DHT22;14163;-26.142;27.992;2024-01-15T15:50:21;30.70;99.90
26479;DHT22;14163;-26.142;27.992;2024-01-15T15:52:51;30.60;99.90
26479;DHT22;14163;-26.142;27.992;2024-01-15T15:55:19;30.50;99.90
26479;DHT22;14163;-26.142;27.992;2024-01-15T15:57:49;30.00;99.90
26479;DHT22;14163;-26.142;27.992;2024-01-15T16:00:18;29.70;99.90
26479;DHT22;14163;-26.142;27.992;2024-01-15T16:02:47;28.90;99.90
26479;DHT22;14163;-26.142;27.992;2024-01-15T16:05:16;28.60;99.90
26479;DHT22;14163;-26.142;27.992;2024-01-15T16:07:45;28.30;99.90
26479;DHT22;14163;-26.142;27.992;2024-01-15T16:10:16;27.90;99.90
26479;DHT22;14163;-26.142;27.992;2024-01-15T16:12:46;27.90;99.90
26479;DHT22;14163;-26.142;27.992;2024-01-15T16:15:18;28.30;99.90
26479;DHT22;14163;-26.142;27.992;2024-01-15T16:17:48;28.70;99.90
26479;DHT22;14163;-26.142;27.992;2024-01-15T16:20:17;28.80;99.90
26479;DHT22;14163;-26.142;27.992;2024-01-15T16:22:44;28.90;99.90
26479;DHT22;14163;-26.142;27.992;2024-01-15T16:25:15;29.10;99.90
26479;DHT22;14163;-26.142;27.992;2024-01-15T16:27:44;29.20;99.90
26479;DHT22;14163;-26.142;27.992;2024-01-15T16:30:13;29.30;99.90
26479;DHT22;14163;-26.142;27.992;2024-01-15T16:32:42;29.50;99.90
26479;DHT22;14163;-26.142;27.992;2024-01-15T16:35:11;29.80;99.90
26479;DHT22;14163;-26.142;27.992;2024-01-15T16:37:40;30.10;99.90
26479;DHT22;14163;-26.142;27.992;2024-01-15T16:40:10;30.30;99.90
26479;DHT22;14163;-26.142;27.992;2024-01-15T16:42:40;30.40;99.90
26479;DHT22;14163;-26.142;27.992;2024-01-15T16:45:09;30.50;99.90
26479;DHT22;14163;-26.142;27.992;2024-01-15T16:47:38;30.70;99.90
26479;DHT22;14163;-26.142;27.992;2024-01-15T16:50:08;30.70;99.90
26479;DHT22;14163;-26.142;27.992;2024-01-15T16:52:37;30.80;99.90
26479;DHT22;14163;-26.142;27.992;2024-01-15T16:55:06;30.90;99.90
26479;DHT22;14163;-26.142;27.992;2024-01-15T16:57:35;30.90;99.90
26479;DHT22;14163;-26.142;27.992;2024-01-15T17:00:06;30.90;99.90
26479;DHT22;14163;-26.142;27.992;2024-01-15T17:02:36;30.80;99.90
26479;DHT22;14163;-26.142;27.992;2024-01-15T17:05:05;30.60;99.90
26479;DHT22;14163;-26.142;27.992;2024-01-15T17:07:34;30.60;99.90
26479;DHT22;14163;-26.142;27.992;2024-01-15T17:10:03;30.60;99.90
26479;DHT22;14163;-26.142;27.992;2024-01-15T17:12:33;30.50;99.90
26479;DHT22;14163;-26.142;27.992;2024-01-15T17:15:01;30.50;99.90
26479;DHT22;14163;-26.142;27.992;2024-01-15T17:17:32;30.50;99.90
26479;DHT22;14163;-26.142;27.992;2024-01-15T17:20:01;30.60;99.90
26479;DHT22;14163;-26.142;27.992;2024-01-15T17:22:30;30.60;99.90
26479;DHT22;14163;-26.142;27.992;2024-01-15T17:24:59;30.50;99.90
26479;DHT22;14163;-26.142;27.992;2024-01-15T17:27:28;30.50;99.90
26479;DHT22;14163;-26.142;27.992;2024-01-15T17:29:57;30.40;99.90
26479;DHT22;14163;-26.142;27.992;2024-01-15T17:32:26;30.40;99.90
26479;DHT22;14163;-26.142;27.992;2024-01-15T17:34:57;30.40;99.90
26479;DHT22;14163;-26.142;27.992;2024-01-15T17:37:25;30.30;99.90
26479;DHT22;14163;-26.142;27.992;2024-01-15T17:39:55;30.20;99.90
26479;DHT22;14163;-26.142;27.992;2024-01-15T17:42:24;30.10;99.90
26479;DHT22;14163;-26.142;27.992;2024-01-15T17:44:53;30.20;99.90
26479;DHT22;14163;-26.142;27.992;2024-01-15T17:47:22;30.10;99.90
26479;DHT22;14163;-26.142;27.992;2024-01-15T17:49:51;30.20;99.90
26479;DHT22;14163;-26.142;27.992;2024-01-15T17:52:23;30.10;99.90
26479;DHT22;14163;-26.142;27.992;2024-01-15T17:54:52;30.10;99.90
26479;DHT22;14163;-26.142;27.992;2024-01-15T17:57:21;30.00;99.90
26479;DHT22;14163;-26.142;27.992;2024-01-15T17:59:50;30.10;99.90
26479;DHT22;14163;-26.142;27.992;2024-01-15T18:02:19;30.10;99.90
26479;DHT22;14163;-26.142;27.992;2024-01-15T18:04:48;30.20;99.90
26479;DHT22;14163;-26.142;27.992;2024-01-15T18:07:16;30.20;99.90
26479;DHT22;14163;-26.142;27.992;2024-01-15T18:09:48;30.10;99.90
26479;DHT22;14163;-26.142;27.992;2024-01-15T18:12:17;30.00;99.90
26479;DHT22;14163;-26.142;27.992;2024-01-15T18:14:46;30.00;99.90
26479;DHT22;14163;-26.142;27.992;2024-01-15T18:17:15;29.90;99.90
26479;DHT22;14163;-26.142;27.992;2024-01-15T18:19:44;29.80;99.90
26479;DHT22;14163;-26.142;27.992;2024-01-15T18:22:13;29.90;99.90
26479;DHT22;14163;-26.142;27.992;2024-01-15T18:24:42;29.90;99.90
26479;DHT22;14163;-26.142;27.992;2024-01-15T18:27:12;29.90;99.90
26479;DHT22;14163;-26.142;27.992;2024-01-15T18:29:41;29.90;99.90
26479;DHT22;14163;-26.142;27.992;2024-01-15T18:32:10;29.70;99.90
26479;DHT22;14163;-26.142;27.992;2024-01-15T18:34:39;29.70;99.90
26479;DHT22;14163;-26.142;27.992;2024-01-15T18:37:09;29.80;99.90
26479;DHT22;14163;-26.142;27.992;2024-01-15T18:39:38;29.80;99.90
26479;DHT22;14163;-26.142;27.992;2024-01-15T18:42:07;29.70;99.90
26479;DHT22;14163;-26.142;27.992;2024-01-15T18:44:37;29.70;99.90
26479;DHT22;14163;-26.142;27.992;2024-01-15T18:47:06;29.60;99.90
26479;DHT22;14163;-26.142;27.992;2024-01-15T18:49:35;29.60;99.90
26479;DHT22;14163;-26.142;27.992;2024-01-15T18:52:05;29.50;99.90
26479;DHT22;14163;-26.142;27.992;2024-01-15T18:54:34;29.50;99.90
26479;DHT22;14163;-26.142;27.992;2024-01-15T18:57:01;29.40;99.90
26479;DHT22;14163;-26.142;27.992;2024-01-15T18:59:30;29.40;99.90
26479;DHT22;14163;-26.142;27.992;2024-01-15T19:02:01;29.40;99.90
26479;DHT22;14163;-26.142;27.992;2024-01-15T19:04:30;29.30;99.90
26479;DHT22;14163;-26.142;27.992;2024-01-15T19:06:59;29.30;99.90
26479;DHT22;14163;-26.142;27.992;2024-01-15T19:09:28;29.30;99.90
26479;DHT22;14163;-26.142;27.992;2024-01-15T19:11:57;29.30;99.90
26479;DHT22;14163;-26.142;27.992;2024-01-15T19:14:26;29.30;99.90
26479;DHT22;14163;-26.142;27.992;2024-01-15T19:16:56;29.20;99.90
26479;DHT22;14163;-26.142;27.992;2024-01-15T19:19:26;29.10;99.90
26479;DHT22;14163;-26.142;27.992;2024-01-15T19:21:56;29.20;99.90
26479;DHT22;14163;-26.142;27.992;2024-01-15T19:24:25;29.20;99.90
26479;DHT22;14163;-26.142;27.992;2024-01-15T19:26:54;29.20;99.90